createdAt,value
2022-08-26T00:00:14.939Z,9
2022-08-26T00:05:14.991Z,8
2022-08-26T00:10:15.210Z,10
2022-08-26T00:15:15.395Z,10
2022-08-26T00:20:15.102Z,10
2022-08-26T00:25:15.109Z,10
2022-08-26T00:30:14.459Z,11
2022-08-26T00:35:15.030Z,10
2022-08-26T00:40:14.449Z,10
2022-08-26T00:45:14.435Z,10
2022-08-26T00:50:15.037Z,9
2022-08-26T00:55:19.799Z,9
2022-08-26T01:00:15.170Z,11
2022-08-26T01:05:14.511Z,10
2022-08-26T01:10:15.106Z,10
2022-08-26T01:15:15.099Z,9
2022-08-26T01:20:14.521Z,9
2022-08-26T01:25:14.509Z,9
2022-08-26T01:30:15.137Z,8
2022-08-26T01:35:15.149Z,10
2022-08-26T01:40:14.770Z,8
2022-08-26T01:45:14.655Z,9
2022-08-26T01:50:15.782Z,8
2022-08-26T01:55:15.301Z,10
2022-08-26T02:00:16.255Z,13
2022-08-26T02:05:15.331Z,12
2022-08-26T02:10:15.206Z,12
2022-08-26T02:15:15.199Z,13
2022-08-26T02:20:15.243Z,13
2022-08-26T02:25:14.696Z,12
2022-08-26T02:30:14.709Z,12
2022-08-26T02:35:18.155Z,12
2022-08-26T02:40:14.750Z,11
2022-08-26T02:45:14.681Z,10
2022-08-26T02:50:15.319Z,8
2022-08-26T02:55:15.305Z,9
2022-08-26T03:00:14.780Z,9
2022-08-26T03:05:14.758Z,8
2022-08-26T03:10:15.364Z,8
2022-08-26T03:15:17.761Z,11
2022-08-26T03:20:15.626Z,8
2022-08-26T03:25:15.347Z,12
2022-08-26T03:30:14.909Z,12
2022-08-26T03:35:15.094Z,12
2022-08-26T03:40:14.836Z,13
2022-08-26T03:45:14.873Z,14
2022-08-26T03:50:15.513Z,14
2022-08-26T03:55:15.503Z,13
2022-08-26T04:00:14.849Z,19
2022-08-26T04:05:15.521Z,17
2022-08-26T04:10:14.899Z,20
2022-08-26T04:15:14.931Z,22
2022-08-26T04:20:16.140Z,18
2022-08-26T04:25:15.448Z,14
2022-08-26T04:30:15.503Z,11
2022-08-26T04:35:14.867Z,15
2022-08-26T04:40:14.926Z,11
2022-08-26T04:45:14.916Z,12
2022-08-26T04:50:15.507Z,10
2022-08-26T04:55:15.547Z,10
2022-08-26T05:00:15.554Z,17
2022-08-26T05:05:15.667Z,18
2022-08-26T05:10:15.695Z,20
2022-08-26T05:15:15.004Z,21
2022-08-26T05:20:15.606Z,17
2022-08-26T05:25:15.567Z,17
2022-08-26T05:30:15.702Z,17
2022-08-26T05:35:15.604Z,14
2022-08-26T05:40:28.954Z,15
2022-08-26T05:45:15.011Z,13
2022-08-26T05:50:15.736Z,14
2022-08-26T05:55:15.653Z,14
2022-08-26T06:00:15.648Z,13
2022-08-26T06:05:15.634Z,13
2022-08-26T06:10:31.391Z,14
2022-08-26T06:15:15.116Z,12
2022-08-26T06:20:15.095Z,12
2022-08-26T06:25:15.104Z,31
2022-08-26T06:30:15.168Z,11
2022-08-26T06:35:15.196Z,12
2022-08-26T06:40:14.673Z,12
2022-08-26T06:45:15.181Z,14
2022-08-26T06:50:15.167Z,27
2022-08-26T06:55:15.164Z,11
2022-08-26T07:00:15.849Z,12
2022-08-26T07:05:15.204Z,14
2022-08-26T07:10:15.806Z,13
2022-08-26T07:15:15.180Z,12
2022-08-26T07:20:15.800Z,16
2022-08-26T07:25:15.236Z,15
2022-08-26T07:30:15.920Z,14
2022-08-26T07:35:15.832Z,14
2022-08-26T07:40:15.271Z,14
2022-08-26T07:45:15.287Z,15
2022-08-26T07:50:15.857Z,13
2022-08-26T07:55:15.888Z,13
2022-08-26T08:00:15.870Z,12
2022-08-26T08:05:16.043Z,12
2022-08-26T08:10:15.434Z,10
2022-08-26T08:15:15.895Z,12
2022-08-26T08:20:15.937Z,13
2022-08-26T08:25:15.919Z,17
2022-08-26T08:30:15.332Z,10
2022-08-26T08:35:15.430Z,10
2022-08-26T08:40:15.439Z,9
2022-08-26T08:45:15.340Z,21
2022-08-26T08:50:15.962Z,11
2022-08-26T08:55:18.003Z,10
2022-08-26T09:00:15.499Z,23
2022-08-26T09:05:16.044Z,10
2022-08-26T09:10:16.022Z,11
2022-08-26T09:15:16.006Z,11
2022-08-26T09:20:16.122Z,11
2022-08-26T09:25:16.067Z,10
2022-08-26T09:30:15.467Z,11
2022-08-26T09:35:16.061Z,9
2022-08-26T09:40:15.671Z,8
2022-08-26T09:45:15.565Z,8
2022-08-26T09:50:16.125Z,8
2022-08-26T09:55:16.092Z,9
2022-08-26T10:00:15.677Z,8
2022-08-26T10:05:16.115Z,10
2022-08-26T10:10:15.613Z,10
2022-08-26T10:15:16.128Z,14
2022-08-26T10:20:15.812Z,10
2022-08-26T10:25:16.193Z,11
2022-08-26T10:30:16.176Z,9
2022-08-26T10:35:15.696Z,9
2022-08-26T10:40:15.693Z,9
2022-08-26T10:45:15.638Z,10
2022-08-26T10:50:30.753Z,10
2022-08-26T10:55:15.650Z,9
2022-08-26T11:00:16.222Z,9
2022-08-26T11:05:16.242Z,9
2022-08-26T11:10:16.280Z,9
2022-08-26T11:15:15.703Z,10
2022-08-26T11:20:16.328Z,8
2022-08-26T11:25:16.336Z,9
2022-08-26T11:30:18.435Z,12
2022-08-26T11:35:16.281Z,8
2022-08-26T11:40:15.766Z,8
2022-08-26T11:45:15.248Z,7
2022-08-26T11:50:15.715Z,12
2022-08-26T11:55:16.363Z,7
2022-08-26T12:00:20.453Z,7
2022-08-26T12:05:16.341Z,8
2022-08-26T12:10:16.550Z,7
2022-08-26T12:15:15.803Z,7
2022-08-26T12:20:15.887Z,8
2022-08-26T12:25:15.812Z,8
2022-08-26T12:30:15.815Z,10
2022-08-26T12:35:16.196Z,9
2022-08-26T12:40:15.851Z,9
2022-08-26T12:45:15.857Z,8
2022-08-26T12:50:16.458Z,8
2022-08-26T12:55:16.485Z,8
2022-08-26T13:00:16.473Z,10
2022-08-26T13:05:15.925Z,8
2022-08-26T13:10:17.730Z,8
2022-08-26T13:15:15.908Z,10
2022-08-26T13:20:29.904Z,9
2022-08-26T13:25:16.534Z,9
2022-08-26T13:30:16.675Z,8
2022-08-26T13:35:16.553Z,8
2022-08-26T13:40:16.090Z,9
2022-08-26T13:45:16.054Z,10
2022-08-26T13:50:16.681Z,10
2022-08-26T13:55:16.668Z,9
2022-08-26T14:00:16.710Z,10
2022-08-26T14:05:16.767Z,10
2022-08-26T14:10:16.706Z,9
2022-08-26T14:15:16.162Z,8
2022-08-26T14:20:16.742Z,8
2022-08-26T14:25:16.714Z,7
2022-08-26T14:30:16.751Z,8
2022-08-26T14:35:16.761Z,8
2022-08-26T14:40:16.804Z,8
2022-08-26T14:45:16.170Z,7
2022-08-26T14:50:16.266Z,7
2022-08-26T14:55:16.781Z,7
2022-08-26T15:00:16.815Z,7
2022-08-26T15:05:16.718Z,6
2022-08-26T15:10:16.110Z,7
2022-08-26T15:15:16.770Z,5
2022-08-26T15:20:16.175Z,6
2022-08-26T15:25:16.788Z,6
2022-08-26T15:30:16.750Z,7
2022-08-26T15:35:16.192Z,6
2022-08-26T15:40:16.848Z,7
2022-08-26T15:45:24.922Z,6
2022-08-26T15:50:16.226Z,6
2022-08-26T15:55:16.809Z,6
2022-08-26T16:00:16.839Z,6
2022-08-26T16:05:16.840Z,5
2022-08-26T16:10:16.859Z,7
2022-08-26T16:15:16.847Z,5
2022-08-26T16:20:16.271Z,5
2022-08-26T16:25:16.859Z,5
2022-08-26T16:30:17.017Z,5
2022-08-26T16:35:17.057Z,6
2022-08-26T16:40:17.084Z,5
2022-08-26T16:45:16.435Z,5
2022-08-26T16:50:16.405Z,6
2022-08-26T16:55:17.054Z,5
2022-08-26T17:00:18.297Z,6
2022-08-26T17:05:22.043Z,6
2022-08-26T17:10:17.067Z,5
2022-08-26T17:15:16.526Z,5
2022-08-26T17:20:21.313Z,5
2022-08-26T17:25:16.595Z,5
2022-08-26T17:30:16.067Z,4
2022-08-26T17:35:17.028Z,5
2022-08-26T17:40:15.961Z,4
2022-08-26T17:45:16.025Z,4
2022-08-26T17:50:15.965Z,4
2022-08-26T17:55:16.777Z,4
2022-08-26T18:00:17.129Z,4
2022-08-26T18:05:22.037Z,4
2022-08-26T18:10:15.967Z,4
2022-08-26T18:15:16.613Z,5
2022-08-26T18:20:16.585Z,4
2022-08-26T18:25:16.601Z,5
2022-08-26T18:30:16.943Z,8
2022-08-26T18:35:17.230Z,8
2022-08-26T18:40:16.672Z,8
2022-08-26T18:45:16.506Z,8
2022-08-26T18:50:16.590Z,8
2022-08-26T18:55:16.595Z,9
2022-08-26T19:00:16.646Z,7
2022-08-26T19:05:16.582Z,9
2022-08-26T19:10:16.589Z,9
2022-08-26T19:15:16.590Z,8
2022-08-26T19:20:16.118Z,8
2022-08-26T19:25:17.487Z,8
2022-08-26T19:30:16.656Z,8
2022-08-26T19:35:16.166Z,7
2022-08-26T19:40:16.727Z,8
2022-08-26T19:45:24.988Z,8
2022-08-26T19:50:16.187Z,8
2022-08-26T19:55:17.302Z,10
2022-08-26T20:00:16.695Z,9
2022-08-26T20:05:16.714Z,9
2022-08-26T20:10:16.263Z,9
2022-08-26T20:15:17.354Z,9
2022-08-26T20:20:32.704Z,8
2022-08-26T20:25:17.930Z,7
2022-08-26T20:30:16.251Z,7
2022-08-26T20:35:16.869Z,6
2022-08-26T20:40:16.871Z,6
2022-08-26T20:45:16.892Z,7
2022-08-26T20:50:16.805Z,5
2022-08-26T20:55:16.812Z,6
2022-08-26T21:00:17.597Z,5
2022-08-26T21:05:16.935Z,6
2022-08-26T21:10:16.844Z,7
2022-08-26T21:15:17.562Z,6
2022-08-26T21:20:16.959Z,6
2022-08-26T21:25:16.345Z,5
2022-08-26T21:30:16.868Z,5
2022-08-26T21:35:16.992Z,6
2022-08-26T21:40:17.623Z,5
2022-08-26T21:45:16.945Z,6
2022-08-26T21:50:17.193Z,7
2022-08-26T21:55:16.403Z,6
2022-08-26T22:00:17.037Z,8
2022-08-26T22:05:17.049Z,8
2022-08-26T22:10:17.063Z,7
2022-08-26T22:15:17.682Z,9
2022-08-26T22:20:16.876Z,9
2022-08-26T22:25:17.110Z,8
2022-08-26T22:30:17.111Z,10
2022-08-26T22:35:28.621Z,10
2022-08-26T22:40:17.227Z,11
2022-08-26T22:45:16.507Z,12
2022-08-26T22:50:17.089Z,12
2022-08-26T22:55:17.055Z,12
2022-08-26T23:00:17.073Z,13
2022-08-26T23:05:17.685Z,12
2022-08-26T23:10:17.097Z,11
2022-08-26T23:15:17.175Z,12
2022-08-26T23:20:17.619Z,12
2022-08-26T23:25:17.255Z,11
2022-08-26T23:30:17.224Z,11
2022-08-26T23:35:17.204Z,12
2022-08-26T23:40:17.896Z,11
2022-08-26T23:45:16.605Z,11
2022-08-26T23:50:16.643Z,13
2022-08-26T23:55:17.249Z,14
